Robert E. Mcallister — WDC8669 — position and weather

sailwx.info

Track history (hours):
 
Tides and Currents Weather Stations Pressure Air Temp Water Temp Dewpoint Dewpoint Depression Visibility Wind Speed Wind Dir Waves Ship Positions

Robert E. Mcallister

Owner: McAllister Towing & Transportation, Staten Island, NY. More information available from US FCC via Universal Licensing System and Coast Guard Vessel Documentation Center.

Last reported at 2017-Jun-26 18:31 UTC. Time now 2017-Jun-26 18:50 UTC.
Position N 39°50' W 075°23'.

; draft 4.3 m.

Type: Tug. MMSI: 367091120.

Date/timePositionNaut miles runAvg speedWind from/ knotsBaromVisibWave heightAir tempDewpointWater temp
2017-Jun-26 18:31N 39°50' W 075°23'3 5.5
2017-Jun-26 18:01N 39°51' W 075°20'3 4.1
2017-Jun-26 17:16N 39°51' W 075°16'0 0.0
2017-Jun-26 16:58N 39°51' W 075°16'1 1.7
2017-Jun-26 16:30N 39°51' W 075°15'1 1.1
2017-Jun-26 15:57N 39°51' W 075°16'0 0.0
2017-Jun-26 15:30N 39°51' W 075°16'0 0.0
2017-Jun-26 15:00N 39°51' W 075°16'0 0.0
2017-Jun-26 14:30N 39°51' W 075°16'0 0.0
2017-Jun-26 13:30N 39°51' W 075°16'0 0.0
2017-Jun-26 12:57N 39°51' W 075°16'0 0.0
2017-Jun-26 12:30N 39°51' W 075°16'2 4.7
2017-Jun-26 12:00N 39°52' W 075°13'0 0.1
2017-Jun-26 11:30N 39°52' W 075°13'0 0.0
2017-Jun-26 11:00N 39°52' W 075°13'0 0.3
2017-Jun-26 10:24N 39°52' W 075°13'0 0.0
2017-Jun-26 09:59N 39°52' W 075°13'0 0.0
2017-Jun-26 09:25N 39°52' W 075°13'2 4.1
2017-Jun-26 09:00N 39°51' W 075°15'4 8.0
2017-Jun-26 08:31N 39°51' W 075°20'3 5.1
2017-Jun-26 08:00N 39°50' W 075°23'0 0.0
2017-Jun-26 07:30N 39°50' W 075°23'0 0.0
2017-Jun-26 07:00N 39°50' W 075°23'0 0.0
2017-Jun-26 06:30N 39°50' W 075°23'0 0.0
2017-Jun-26 06:00N 39°50' W 075°23'0 0.0
2017-Jun-26 05:30N 39°50' W 075°23'0 0.0
2017-Jun-26 05:00N 39°50' W 075°23'0 0.0
2017-Jun-26 04:30N 39°50' W 075°23'0 0.0
2017-Jun-26 04:00N 39°50' W 075°23'0 0.0
2017-Jun-26 03:30N 39°50' W 075°23'0 0.0
2017-Jun-26 03:00N 39°50' W 075°23'810.7
2017-Jun-26 02:18N 39°44' W 075°30'311.0
2017-Jun-26 02:01N 39°41' W 075°31'510.5
2017-Jun-26 01:31N 39°37' W 075°34'2 3.4
2017-Jun-26 01:01N 39°35' W 075°36'0 1.0
2017-Jun-26 00:31N 39°35' W 075°35'2 3.2
2017-Jun-26 00:00N 39°36' W 075°34'510.1
2017-Jun-25 23:31N 39°41' W 075°31'510.4
2017-Jun-25 23:00N 39°46' W 075°29'5 9.7
2017-Jun-25 22:30N 39°49' W 075°24'1 2.1
2017-Jun-25 22:00N 39°50' W 075°23'0 0.0
2017-Jun-25 21:31N 39°50' W 075°23'0 0.0
2017-Jun-25 21:01N 39°50' W 075°23'0 0.0
2017-Jun-25 20:31N 39°50' W 075°23'0 0.0
2017-Jun-25 20:01N 39°50' W 075°23'0 0.0
2017-Jun-25 19:31N 39°50' W 075°23'0 0.0
2017-Jun-25 19:00N 39°50' W 075°23'0 0.0
2017-Jun-25 18:31N 39°50' W 075°23'0 0.0
2017-Jun-25 18:01N 39°50' W 075°23'0 0.0
2017-Jun-25 17:30N 39°50' W 075°23'0 0.0
2017-Jun-25 17:00N 39°50' W 075°23'0 0.0
2017-Jun-25 16:31N 39°50' W 075°23'0 0.0
2017-Jun-25 16:00N 39°50' W 075°23'0 0.0
2017-Jun-25 15:31N 39°50' W 075°23'0 0.0
2017-Jun-25 15:00N 39°50' W 075°23'0 0.0
2017-Jun-25 14:00N 39°50' W 075°23'0 0.0
2017-Jun-25 13:31N 39°50' W 075°23'0 0.0
2017-Jun-25 13:00N 39°50' W 075°23'0 0.0
2017-Jun-25 12:30N 39°50' W 075°23'0 0.0
2017-Jun-25 12:00N 39°50' W 075°23'0 0.0
2017-Jun-25 11:30N 39°50' W 075°23'1 2.8
2017-Jun-25 11:00N 39°49' W 075°24'0 0.0
2017-Jun-25 10:30N 39°49' W 075°24'0 0.0
2017-Jun-25 10:01N 39°49' W 075°24'0 0.7
2017-Jun-25 09:31N 39°48' W 075°24'2 4.5
2017-Jun-25 09:01N 39°47' W 075°27'1 1.5
2017-Jun-25 08:31N 39°48' W 075°26'1 1.6
2017-Jun-25 08:01N 39°48' W 075°25'0 0.0
2017-Jun-25 07:31N 39°48' W 075°25'0 0.1
2017-Jun-25 07:00N 39°48' W 075°25'0 0.1
2017-Jun-25 06:31N 39°48' W 075°25'0 0.2
2017-Jun-25 06:00N 39°48' W 075°25'0 0.1
2017-Jun-25 05:30N 39°48' W 075°25'1 1.5
2017-Jun-25 05:00N 39°49' W 075°24'0 0.0
2017-Jun-25 04:30N 39°49' W 075°24'0 0.0
2017-Jun-25 04:00N 39°49' W 075°24'3 5.7
2017-Jun-25 03:31N 39°47' W 075°27'510.0
2017-Jun-25 03:00N 39°43' W 075°31'5 9.6
2017-Jun-25 02:30N 39°39' W 075°34'4 8.2
2017-Jun-25 02:01N 39°34' W 075°34'1 2.3
2017-Jun-25 01:31N 39°35' W 075°35'0 0.0
2017-Jun-25 01:01N 39°35' W 075°35'0 0.0
2017-Jun-25 00:31N 39°35' W 075°35'0 0.0
2017-Jun-25 00:01N 39°35' W 075°35'0 0.0
2017-Jun-24 23:31N 39°35' W 075°35'0 0.0
2017-Jun-24 23:00N 39°35' W 075°35'0 0.0
2017-Jun-24 22:30N 39°35' W 075°35'0 0.0
2017-Jun-24 22:00N 39°35' W 075°35'0 0.0
2017-Jun-24 21:30N 39°35' W 075°35'0 0.0
2017-Jun-24 21:00N 39°35' W 075°35'0 0.0
2017-Jun-24 20:30N 39°35' W 075°35'0 0.0
2017-Jun-24 20:01N 39°35' W 075°35'0 0.0
2017-Jun-24 19:31N 39°35' W 075°35'0 0.0
2017-Jun-24 19:00N 39°35' W 075°35'3 5.2
2017-Jun-24 18:30N 39°34' W 075°33'2 4.1
2017-Jun-24 18:00N 39°35' W 075°35'1 1.1
2017-Jun-24 17:30N 39°35' W 075°35'0 0.4
2017-Jun-24 17:00N 39°35' W 075°36'0 0.0
2017-Jun-24 16:30N 39°35' W 075°36'0 0.3
2017-Jun-24 16:01N 39°35' W 075°36'2 3.2
2017-Jun-24 15:31N 39°36' W 075°34'5 9.3
2017-Jun-24 15:00N 39°41' W 075°32'8 8.5
2017-Jun-24 14:01N 39°48' W 075°26'3 5.7
2017-Jun-24 13:30N 39°50' W 075°23'0 0.0
2017-Jun-24 13:00N 39°50' W 075°23'0 0.0
2017-Jun-24 12:30N 39°50' W 075°23'0 0.0
2017-Jun-24 12:00N 39°50' W 075°23'0 0.0
2017-Jun-24 11:31N 39°50' W 075°23'0 0.0
2017-Jun-24 11:00N 39°50' W 075°23'0 0.0
2017-Jun-24 10:31N 39°50' W 075°23'0 0.0
2017-Jun-24 10:01N 39°50' W 075°23'0 0.0
2017-Jun-24 09:31N 39°50' W 075°23'0 0.0
2017-Jun-24 09:01N 39°50' W 075°23'0 0.0
2017-Jun-24 08:30N 39°50' W 075°23'0 0.0
2017-Jun-24 08:01N 39°50' W 075°23'4 8.4
2017-Jun-24 07:31N 39°51' W 075°18'1 2.4
2017-Jun-24 06:54N 39°51' W 075°16'0 0.2
2017-Jun-24 06:30N 39°51' W 075°16'510.0
2017-Jun-24 06:01N 39°50' W 075°22'1 1.0
2017-Jun-24 05:30N 39°50' W 075°23'0 0.0
2017-Jun-24 05:00N 39°50' W 075°23'0 0.0
2017-Jun-24 04:30N 39°50' W 075°23'0 0.0
2017-Jun-24 04:00N 39°50' W 075°23'0 0.0
2017-Jun-24 03:30N 39°50' W 075°23'0 0.0
2017-Jun-24 03:00N 39°50' W 075°23'0 0.0
2017-Jun-24 02:30N 39°50' W 075°23'0 0.0
2017-Jun-24 02:00N 39°50' W 075°23'0 0.0
2017-Jun-24 01:30N 39°50' W 075°23'0 0.0
2017-Jun-24 01:00N 39°50' W 075°23'0 0.0
2017-Jun-24 00:30N 39°50' W 075°23'0 0.0
2017-Jun-24 00:00N 39°50' W 075°23'0 0.0
2017-Jun-23 23:30N 39°50' W 075°23'0 0.0
2017-Jun-23 23:00N 39°50' W 075°23'0 0.0
2017-Jun-23 22:30N 39°50' W 075°23'0 0.0
2017-Jun-23 22:00N 39°50' W 075°23'0 0.0
2017-Jun-23 21:30N 39°50' W 075°23'0 0.0
2017-Jun-23 21:00N 39°50' W 075°23'0 0.0
2017-Jun-23 20:30N 39°50' W 075°23'0 0.0
2017-Jun-23 20:00N 39°50' W 075°23'0 0.0
2017-Jun-23 19:30N 39°50' W 075°23'0 0.0
2017-Jun-23 19:01N 39°50' W 075°23'0 0.0
2017-Jun-23 18:31N 39°50' W 075°23'0 0.0
2017-Jun-23 18:01N 39°50' W 075°23'0 0.0
2017-Jun-23 17:31N 39°50' W 075°23'0 0.0
2017-Jun-23 17:00N 39°50' W 075°23'0 0.0
2017-Jun-23 16:31N 39°50' W 075°23'3 6.5
2017-Jun-23 16:01N 39°48' W 075°26'611.9
2017-Jun-23 15:30N 39°43' W 075°31'611.8
2017-Jun-23 15:00N 39°38' W 075°35'3 2.5
2017-Jun-23 14:01N 39°35' W 075°36'1 1.5
2017-Jun-23 13:30N 39°35' W 075°35'1 1.6
2017-Jun-23 13:00N 39°35' W 075°36'0 0.0
2017-Jun-23 12:30N 39°35' W 075°36'0 0.0
2017-Jun-23 12:00N 39°35' W 075°36'0 0.0
2017-Jun-23 11:31N 39°35' W 075°36'0 0.0
2017-Jun-23 11:01N 39°35' W 075°36'0 0.0
2017-Jun-23 10:30N 39°35' W 075°36'0 0.0
2017-Jun-23 10:00N 39°35' W 075°36'0 0.0
2017-Jun-23 09:30N 39°35' W 075°36'0 0.0
2017-Jun-23 09:00N 39°35' W 075°36'0 0.0
2017-Jun-23 08:30N 39°35' W 075°36'0 0.0
2017-Jun-23 08:00N 39°35' W 075°36'0 0.0
2017-Jun-23 07:30N 39°35' W 075°36'0 0.0
2017-Jun-23 07:00N 39°35' W 075°36'0 0.5
2017-Jun-23 06:30N 39°35' W 075°35'0 0.0
2017-Jun-23 06:00N 39°35' W 075°35'0 0.0
2017-Jun-23 05:30N 39°35' W 075°35'0 0.1
2017-Jun-23 05:00N 39°35' W 075°35'2 3.2
2017-Jun-23 04:30N 39°34' W 075°34'1 3.0
2017-Jun-23 04:01N 39°33' W 075°33'1 1.1
2017-Jun-23 03:30N 39°32' W 075°33'3 6.5
2017-Jun-23 03:01N 39°35' W 075°35'1 2.7
2017-Jun-23 02:30N 39°35' W 075°33'4 7.5
2017-Jun-23 02:01N 39°39' W 075°34'4 8.4
2017-Jun-23 01:31N 39°42' W 075°31'4 8.4
2017-Jun-23 01:00N 39°46' W 075°28'4 8.7
2017-Jun-23 00:30N 39°49' W 075°24'1 2.3
2017-Jun-23 00:00N 39°50' W 075°23'0 0.0
2017-Jun-22 23:30N 39°50' W 075°23'0 0.0
2017-Jun-22 23:00N 39°50' W 075°23'0 0.0
2017-Jun-22 22:30N 39°50' W 075°23'0 0.0
2017-Jun-22 22:00N 39°50' W 075°23'0 0.0
2017-Jun-22 21:30N 39°50' W 075°23'0 0.0
2017-Jun-22 21:00N 39°50' W 075°23'0 0.0
2017-Jun-22 20:30N 39°50' W 075°23'0 0.0
2017-Jun-22 20:00N 39°50' W 075°23'0 0.0
2017-Jun-22 19:30N 39°50' W 075°23'0 0.0
2017-Jun-22 19:00N 39°50' W 075°23'0 0.0
2017-Jun-22 18:30N 39°50' W 075°23'0 0.0
2017-Jun-22 18:00N 39°50' W 075°23'0 0.0
2017-Jun-22 17:30N 39°50' W 075°23'0 0.0
2017-Jun-22 17:00N 39°50' W 075°23'0 0.0
2017-Jun-22 16:30N 39°50' W 075°23'0 0.0
2017-Jun-22 16:00N 39°50' W 075°23'0 0.0
2017-Jun-22 15:30N 39°50' W 075°23'0 0.0
2017-Jun-22 15:00N 39°50' W 075°23'0 0.0
2017-Jun-22 14:31N 39°50' W 075°23'0 0.0
2017-Jun-22 13:30N 39°50' W 075°23'0 0.0
2017-Jun-22 13:00N 39°50' W 075°23'0 0.0
2017-Jun-22 12:30N 39°50' W 075°23'0 0.0
2017-Jun-22 12:00N 39°50' W 075°23'0 0.0
2017-Jun-22 11:30N 39°50' W 075°23'0 0.0
2017-Jun-22 11:00N 39°50' W 075°23'0 0.0
2017-Jun-22 10:30N 39°50' W 075°23'0 0.0
2017-Jun-22 10:00N 39°50' W 075°23'0 0.0
2017-Jun-22 09:30N 39°50' W 075°23'0 0.0
2017-Jun-22 09:01N 39°50' W 075°23'0 0.0
2017-Jun-22 08:30N 39°50' W 075°23'0 0.0
2017-Jun-22 08:00N 39°50' W 075°23'0 0.0
2017-Jun-22 07:30N 39°50' W 075°23'0 0.0
2017-Jun-22 07:00N 39°50' W 075°23'0 0.0
2017-Jun-22 06:30N 39°50' W 075°23'0 0.0
2017-Jun-22 06:01N 39°50' W 075°23'1 2.4
2017-Jun-22 05:30N 39°49' W 075°24'0 0.5
2017-Jun-22 05:01N 39°49' W 075°24'1 1.9
2017-Jun-22 04:30N 39°50' W 075°23'0 0.0
2017-Jun-22 04:00N 39°50' W 075°23'0 0.0
2017-Jun-22 03:30N 39°50' W 075°23'0 0.0
2017-Jun-22 03:00N 39°50' W 075°23'0 0.0
2017-Jun-22 02:30N 39°50' W 075°23'0 0.0
2017-Jun-22 02:00N 39°50' W 075°23'0 0.0
2017-Jun-22 01:30N 39°50' W 075°23'0 0.0
2017-Jun-22 01:01N 39°50' W 075°23'0 0.0
2017-Jun-22 00:31N 39°50' W 075°23'2 4.1
2017-Jun-22 00:00N 39°48' W 075°25'510.5
2017-Jun-21 23:30N 39°44' W 075°30'5 9.7
2017-Jun-21 23:00N 39°40' W 075°32'4 8.6
2017-Jun-21 22:30N 39°36' W 075°34'1 2.8
2017-Jun-21 22:00N 39°35' W 075°35'0 0.2
2017-Jun-21 21:30N 39°35' W 075°35'3 5.9
2017-Jun-21 21:00N 39°33' W 075°33'0 0.3
2017-Jun-21 20:31N 39°33' W 075°33'0 0.3
2017-Jun-21 20:00N 39°33' W 075°33'2 3.4
2017-Jun-21 19:30N 39°34' W 075°33'4 8.9
2017-Jun-21 19:00N 39°39' W 075°33'5 9.9
2017-Jun-21 18:30N 39°43' W 075°30'5 9.6
2017-Jun-21 18:01N 39°47' W 075°27'4 7.7
2017-Jun-21 17:30N 39°50' W 075°23'0 0.0
2017-Jun-21 17:00N 39°50' W 075°23'0 0.0
2017-Jun-21 16:30N 39°50' W 075°23'0 0.0
2017-Jun-21 16:00N 39°50' W 075°23'0 0.0
2017-Jun-21 15:30N 39°50' W 075°23'0 0.0
2017-Jun-21 15:00N 39°50' W 075°23'0 0.0
2017-Jun-21 14:30N 39°50' W 075°23'0 0.0
2017-Jun-21 13:30N 39°50' W 075°23'2 3.2
2017-Jun-21 13:00N 39°50' W 075°21'4 7.4
2017-Jun-21 12:31N 39°51' W 075°16'4 7.3
2017-Jun-21 12:00N 39°53' W 075°12'3 6.4
2017-Jun-21 11:30N 39°54' W 075°08'0 0.4
2017-Jun-21 11:01N 39°54' W 075°08'3 5.5
2017-Jun-21 10:30N 39°53' W 075°12'4 8.3
2017-Jun-21 10:00N 39°51' W 075°16'4 7.9
2017-Jun-21 09:30N 39°50' W 075°22'1 2.5
2017-Jun-21 09:01N 39°50' W 075°23'0 0.0
2017-Jun-21 08:30N 39°50' W 075°23'0 0.0
2017-Jun-21 08:00N 39°50' W 075°23'0 0.0
2017-Jun-21 07:30N 39°50' W 075°23'0 0.0
2017-Jun-21 07:00N 39°50' W 075°23'0 0.0
2017-Jun-21 06:30N 39°50' W 075°23'0 0.0
2017-Jun-21 06:00N 39°50' W 075°23'0 0.0
2017-Jun-21 05:30N 39°50' W 075°23'0 0.0
2017-Jun-21 05:00N 39°50' W 075°23'1 2.5
2017-Jun-21 04:30N 39°49' W 075°24'0 0.1
2017-Jun-21 04:00N 39°49' W 075°24'1 2.8
2017-Jun-21 03:30N 39°48' W 075°26'0 0.0
2017-Jun-21 03:01N 39°48' W 075°26'0 0.0
2017-Jun-21 02:31N 39°48' W 075°26'3 6.0
2017-Jun-21 02:01N 39°46' W 075°29'611.9
2017-Jun-21 01:31N 39°40' W 075°32'510.5
2017-Jun-21 01:01N 39°35' W 075°34'1 2.6
2017-Jun-21 00:31N 39°35' W 075°35'1 1.5
2017-Jun-21 00:00N 39°35' W 075°35'2 4.5
2017-Jun-20 23:31N 39°37' W 075°35'4 7.9
2017-Jun-20 23:01N 39°40' W 075°32'4 7.9
2017-Jun-20 22:30N 39°44' W 075°30'4 8.0
2017-Jun-20 22:00N 39°47' W 075°27'4 7.9
2017-Jun-20 21:30N 39°50' W 075°23'0 0.0
2017-Jun-20 21:00N 39°50' W 075°23'0 0.0
2017-Jun-20 20:30N 39°50' W 075°23'0 0.0
2017-Jun-20 20:00N 39°50' W 075°23'0 0.0
2017-Jun-20 19:30N 39°50' W 075°23'0 0.0
2017-Jun-20 19:00N 39°50' W 075°23'0 0.0
2017-Jun-20 18:30N 39°50' W 075°23'0 0.0
2017-Jun-20 18:00N 39°50' W 075°23'0 0.0
2017-Jun-20 17:30N 39°50' W 075°23'0 0.0
2017-Jun-20 17:00N 39°50' W 075°23'1 2.8
2017-Jun-20 16:30N 39°49' W 075°24'1 1.3
2017-Jun-20 16:00N 39°49' W 075°23'1 1.5
2017-Jun-20 15:30N 39°49' W 075°23'0 0.3
2017-Jun-20 15:00N 39°50' W 075°23'0 0.0
2017-Jun-20 14:00N 39°50' W 075°23'0 0.0
2017-Jun-20 13:31N 39°50' W 075°23'0 0.0
2017-Jun-20 13:00N 39°50' W 075°23'0 0.0
2017-Jun-20 12:30N 39°50' W 075°23'0 0.0
2017-Jun-20 12:00N 39°50' W 075°23'0 0.0
2017-Jun-20 11:30N 39°50' W 075°23'0 0.0
2017-Jun-20 11:00N 39°50' W 075°23'0 0.0
2017-Jun-20 10:30N 39°50' W 075°23'0 0.0
2017-Jun-20 10:00N 39°50' W 075°23'0 0.0
2017-Jun-20 09:30N 39°50' W 075°23'0 0.0
2017-Jun-20 09:00N 39°50' W 075°23'0 0.0
2017-Jun-20 08:30N 39°50' W 075°23'0 0.0
2017-Jun-20 08:00N 39°50' W 075°23'0 0.0
2017-Jun-20 07:30N 39°50' W 075°23'0 0.0
2017-Jun-20 07:00N 39°50' W 075°23'0 0.0
2017-Jun-20 06:30N 39°50' W 075°23'0 0.0
2017-Jun-20 06:00N 39°50' W 075°23'0 0.0
2017-Jun-20 05:31N 39°50' W 075°23'0 0.0
2017-Jun-20 05:00N 39°50' W 075°23'0 0.0
2017-Jun-20 04:30N 39°50' W 075°23'0 0.0
2017-Jun-20 04:01N 39°50' W 075°23'0 0.0
2017-Jun-20 03:30N 39°50' W 075°23'0 0.0
2017-Jun-20 03:00N 39°50' W 075°23'0 0.0
2017-Jun-20 02:31N 39°50' W 075°23'0 0.0
2017-Jun-20 02:01N 39°50' W 075°23'0 0.0
2017-Jun-20 01:31N 39°50' W 075°23'0 0.0
2017-Jun-20 01:01N 39°50' W 075°23'0 0.0
2017-Jun-20 00:31N 39°50' W 075°23'0 0.0
2017-Jun-20 00:01N 39°50' W 075°23'0 0.0
2017-Jun-19 23:30N 39°50' W 075°23'0 0.0
2017-Jun-19 23:00N 39°50' W 075°23'0 0.0
2017-Jun-19 22:30N 39°50' W 075°23'1 2.9
2017-Jun-19 22:01N 39°49' W 075°24'0 0.1
2017-Jun-19 21:30N 39°49' W 075°24'0 0.0
2017-Jun-19 21:00N 39°49' W 075°24'0 0.0
2017-Jun-19 20:30N 39°49' W 075°24'1 2.6
2017-Jun-19 20:00N 39°49' W 075°23'0 0.4
2017-Jun-19 19:30N 39°50' W 075°23'0 0.0
2017-Jun-19 19:00N 39°50' W 075°23'0 0.0
2017-Jun-19 18:30N 39°50' W 075°23'0 0.0
2017-Jun-19 18:00N 39°50' W 075°23'0 0.0
2017-Jun-19 17:30N 39°50' W 075°23'0 0.0
2017-Jun-19 16:59N 39°50' W 075°23'0 0.0
2017-Jun-19 16:30N 39°50' W 075°23'0 0.0
2017-Jun-19 16:00N 39°50' W 075°23'0 0.0
2017-Jun-19 15:30N 39°50' W 075°23'0 0.0
2017-Jun-19 15:00N 39°50' W 075°23'0 0.0
2017-Jun-19 14:30N 39°50' W 075°23'0 0.0
2017-Jun-19 13:30N 39°50' W 075°23'0 0.0
2017-Jun-19 13:00N 39°50' W 075°23'0 0.0
2017-Jun-19 12:30N 39°50' W 075°23'0 0.0
2017-Jun-19 12:00N 39°50' W 075°23'0 0.0
2017-Jun-19 11:30N 39°50' W 075°23'0 0.0
2017-Jun-19 11:00N 39°50' W 075°23'0 0.0
2017-Jun-19 10:30N 39°50' W 075°23'0 0.0
2017-Jun-19 10:00N 39°50' W 075°23'0 0.0
2017-Jun-19 09:30N 39°50' W 075°23'0 0.0
2017-Jun-19 09:00N 39°50' W 075°23'0 0.0
2017-Jun-19 08:31N 39°50' W 075°23'0 0.0
2017-Jun-19 08:00N 39°50' W 075°23'0 0.0
2017-Jun-19 07:30N 39°50' W 075°23'0 0.0
2017-Jun-19 07:00N 39°50' W 075°23'0 0.0
2017-Jun-19 06:30N 39°50' W 075°23'0 0.0
2017-Jun-19 06:00N 39°50' W 075°23'0 0.0
2017-Jun-19 05:30N 39°50' W 075°23'0 0.0
2017-Jun-19 05:00N 39°50' W 075°23'0 0.0
2017-Jun-19 04:31N 39°50' W 075°23'0 0.0
2017-Jun-19 04:00N 39°50' W 075°23'0 0.0
2017-Jun-19 03:30N 39°50' W 075°23'0 0.0
2017-Jun-19 03:00N 39°50' W 075°23'4 8.0
2017-Jun-19 02:30N 39°51' W 075°18'4 8.0
2017-Jun-19 02:00N 39°52' W 075°13'0 0.0
2017-Jun-19 01:31N 39°52' W 075°13'0 0.0
2017-Jun-19 01:00N 39°52' W 075°13'1 1.2
2017-Jun-19 00:30N 39°52' W 075°14'2 4.7
2017-Jun-19 00:01N 39°54' W 075°12'0 0.3
2017-Jun-18 23:30N 39°54' W 075°12'0 0.0
2017-Jun-18 23:00N 39°54' W 075°12'0 0.0
2017-Jun-18 22:31N 39°54' W 075°12'0 0.0
2017-Jun-18 22:01N 39°54' W 075°12'0 0.0
2017-Jun-18 21:31N 39°54' W 075°12'0 0.0
2017-Jun-18 21:00N 39°54' W 075°12'0 0.0
2017-Jun-18 20:30N 39°54' W 075°12'0 0.0
2017-Jun-18 20:01N 39°54' W 075°12'1 1.7
2017-Jun-18 19:31N 39°53' W 075°12'2 4.7
2017-Jun-18 19:00N 39°51' W 075°14'1 2.8
2017-Jun-18 18:31N 39°51' W 075°16'5 9.4
2017-Jun-18 18:00N 39°50' W 075°22'3 5.9
2017-Jun-18 17:30N 39°48' W 075°25'1 2.0
2017-Jun-18 17:01N 39°49' W 075°24'611.8
2017-Jun-18 16:30N 39°51' W 075°17'1 2.7
2017-Jun-18 16:01N 39°51' W 075°15'0 0.0
2017-Jun-18 15:31N 39°51' W 075°15'0 1.0
2017-Jun-18 15:00N 39°51' W 075°16'0 0.0
2017-Jun-18 14:01N 39°51' W 075°16'1 2.0
2017-Jun-18 13:31N 39°51' W 075°15'4 7.8
2017-Jun-18 13:01N 39°53' W 075°10'2 4.0
2017-Jun-18 12:30N 39°54' W 075°08'0 0.7
2017-Jun-18 12:01N 39°54' W 075°08'0 0.7
2017-Jun-18 11:30N 39°54' W 075°08'3 5.4
2017-Jun-18 11:00N 39°53' W 075°11'1 2.0
2017-Jun-18 10:31N 39°54' W 075°12'0 0.0
2017-Jun-18 10:01N 39°54' W 075°12'0 0.0
2017-Jun-18 09:30N 39°54' W 075°12'0 0.0
2017-Jun-18 09:00N 39°54' W 075°12'0 0.0
2017-Jun-18 08:31N 39°54' W 075°12'0 0.0
2017-Jun-18 08:00N 39°54' W 075°12'0 0.0
2017-Jun-18 07:30N 39°54' W 075°12'0 0.0
2017-Jun-18 07:00N 39°54' W 075°12'0 0.0
2017-Jun-18 06:31N 39°54' W 075°12'0 0.0
2017-Jun-18 06:00N 39°54' W 075°12'0 0.0
2017-Jun-18 05:30N 39°54' W 075°12'0 0.0
2017-Jun-18 05:00N 39°54' W 075°12'0 0.0
2017-Jun-18 04:30N 39°54' W 075°12'0 0.0
2017-Jun-18 04:00N 39°54' W 075°12'0 0.0
2017-Jun-18 03:31N 39°54' W 075°12'0 0.0
2017-Jun-18 03:01N 39°54' W 075°12'0 0.0
2017-Jun-18 02:30N 39°54' W 075°12'0 0.0
2017-Jun-18 02:00N 39°54' W 075°12'0 0.0
2017-Jun-18 01:30N 39°54' W 075°12'0 0.0
2017-Jun-18 01:00N 39°54' W 075°12'0 0.0
2017-Jun-18 00:30N 39°54' W 075°12'0 0.6
2017-Jun-18 00:01N 39°54' W 075°12'3 5.6
2017-Jun-17 23:30N 39°51' W 075°14'2 3.9
2017-Jun-17 23:00N 39°51' W 075°16'5 9.0
2017-Jun-17 22:30N 39°50' W 075°22'1 1.3
2017-Jun-17 22:00N 39°50' W 075°23'0 0.0
2017-Jun-17 21:30N 39°50' W 075°23'0 0.0
2017-Jun-17 21:00N 39°50' W 075°23'0 0.0
2017-Jun-17 20:31N 39°50' W 075°23'0 0.0
2017-Jun-17 20:00N 39°50' W 075°23'0 0.0
2017-Jun-17 19:30N 39°50' W 075°23'0 0.0
2017-Jun-17 19:00N 39°50' W 075°23'0 0.0
2017-Jun-17 18:30N 39°50' W 075°23'0 0.0
2017-Jun-17 18:00N 39°50' W 075°23'0 0.0
2017-Jun-17 17:30N 39°50' W 075°23'0 0.0
2017-Jun-17 17:00N 39°50' W 075°23'0 0.0
2017-Jun-17 16:30N 39°50' W 075°23'0 0.0
2017-Jun-17 16:00N 39°50' W 075°23'1 1.3
2017-Jun-17 15:30N 39°49' W 075°24'4 9.0
2017-Jun-17 15:00N 39°46' W 075°28'4 8.0
2017-Jun-17 14:30N 39°43' W 075°31'1 1.1
2017-Jun-17 13:30N 39°44' W 075°30'5 9.8
2017-Jun-17 13:00N 39°48' W 075°26'5 9.8
2017-Jun-17 12:30N 39°51' W 075°21'4 9.0
2017-Jun-17 12:00N 39°51' W 075°15'4 7.3
2017-Jun-17 11:30N 39°54' W 075°12'0 0.0
2017-Jun-17 11:00N 39°54' W 075°12'0 0.0
2017-Jun-17 10:31N 39°54' W 075°12'0 0.0
2017-Jun-17 10:00N 39°54' W 075°12'1 1.1
2017-Jun-17 09:31N 39°53' W 075°12'3 5.6
2017-Jun-17 09:01N 39°54' W 075°08'0 0.8
2017-Jun-17 08:30N 39°54' W 075°08'2 3.1
2017-Jun-17 08:00N 39°53' W 075°09'2 4.3
2017-Jun-17 07:30N 39°54' W 075°12'0 0.0
2017-Jun-17 07:00N 39°54' W 075°12'0 0.0
2017-Jun-17 06:31N 39°54' W 075°12'0 0.0
2017-Jun-17 06:00N 39°54' W 075°12'0 0.0
2017-Jun-17 05:31N 39°54' W 075°12'0 0.0
2017-Jun-17 05:01N 39°54' W 075°12'0 0.0
2017-Jun-17 04:30N 39°54' W 075°12'0 0.0
2017-Jun-17 04:00N 39°54' W 075°12'0 0.0
2017-Jun-17 03:30N 39°54' W 075°12'0 0.0
2017-Jun-17 03:00N 39°54' W 075°12'0 0.0
2017-Jun-17 02:30N 39°54' W 075°12'0 0.0
2017-Jun-17 02:00N 39°54' W 075°12'0 0.0
2017-Jun-17 01:30N 39°54' W 075°12'0 0.0
2017-Jun-17 01:00N 39°54' W 075°12'0 0.0
2017-Jun-17 00:30N 39°54' W 075°12'0 0.0
2017-Jun-17 00:01N 39°54' W 075°12'0 0.0
2017-Jun-16 23:30N 39°54' W 075°12'0 0.0
2017-Jun-16 23:00N 39°54' W 075°12'0 0.0
2017-Jun-16 22:30N 39°54' W 075°12'0 0.0
2017-Jun-16 22:00N 39°54' W 075°12'0 0.0
2017-Jun-16 21:31N 39°54' W 075°12'0 0.1
2017-Jun-16 21:00N 39°54' W 075°12'0 0.1
2017-Jun-16 20:31N 39°54' W 075°12'0 0.0
2017-Jun-16 20:00N 39°54' W 075°12'0 0.0
2017-Jun-16 19:30N 39°54' W 075°12'0 0.0
2017-Jun-16 19:00N 39°54' W 075°12'  
Track history (hours):
 
Tides and Currents Weather Stations Pressure Air Temp Water Temp Dewpoint Dewpoint Depression Visibility Wind Speed Wind Dir Waves Ship Positions

Robert E. Mcallister

Owner: McAllister Towing & Transportation, Staten Island, NY. More information available from US FCC via Universal Licensing System and Coast Guard Vessel Documentation Center.

Last reported at 2017-Jun-26 18:31 UTC. Time now 2017-Jun-26 18:50 UTC.
Position N 39°50' W 075°23'.

; draft 4.3 m.

Type: Tug. MMSI: 367091120.

Date/timePositionNaut miles runAvg speedWind from/ knotsBaromVisibWave heightAir tempDewpointWater temp
2017-Jun-26 18:31N 39°50' W 075°23'3 5.5
2017-Jun-26 18:01N 39°51' W 075°20'3 4.1
2017-Jun-26 17:16N 39°51' W 075°16'0 0.0
2017-Jun-26 16:58N 39°51' W 075°16'1 1.7
2017-Jun-26 16:30N 39°51' W 075°15'1 1.1
2017-Jun-26 15:57N 39°51' W 075°16'0 0.0
2017-Jun-26 15:30N 39°51' W 075°16'0 0.0
2017-Jun-26 15:00N 39°51' W 075°16'0 0.0
2017-Jun-26 14:30N 39°51' W 075°16'0 0.0
2017-Jun-26 13:30N 39°51' W 075°16'0 0.0
2017-Jun-26 12:57N 39°51' W 075°16'0 0.0
2017-Jun-26 12:30N 39°51' W 075°16'2 4.7
2017-Jun-26 12:00N 39°52' W 075°13'0 0.1
2017-Jun-26 11:30N 39°52' W 075°13'0 0.0
2017-Jun-26 11:00N 39°52' W 075°13'0 0.3
2017-Jun-26 10:24N 39°52' W 075°13'0 0.0
2017-Jun-26 09:59N 39°52' W 075°13'0 0.0
2017-Jun-26 09:25N 39°52' W 075°13'2 4.1
2017-Jun-26 09:00N 39°51' W 075°15'4 8.0
2017-Jun-26 08:31N 39°51' W 075°20'3 5.1
2017-Jun-26 08:00N 39°50' W 075°23'0 0.0
2017-Jun-26 07:30N 39°50' W 075°23'0 0.0
2017-Jun-26 07:00N 39°50' W 075°23'0 0.0
2017-Jun-26 06:30N 39°50' W 075°23'0 0.0
2017-Jun-26 06:00N 39°50' W 075°23'0 0.0
2017-Jun-26 05:30N 39°50' W 075°23'0 0.0
2017-Jun-26 05:00N 39°50' W 075°23'0 0.0
2017-Jun-26 04:30N 39°50' W 075°23'0 0.0
2017-Jun-26 04:00N 39°50' W 075°23'0 0.0
2017-Jun-26 03:30N 39°50' W 075°23'0 0.0
2017-Jun-26 03:00N 39°50' W 075°23'810.7
2017-Jun-26 02:18N 39°44' W 075°30'311.0
2017-Jun-26 02:01N 39°41' W 075°31'510.5
2017-Jun-26 01:31N 39°37' W 075°34'2 3.4
2017-Jun-26 01:01N 39°35' W 075°36'0 1.0
2017-Jun-26 00:31N 39°35' W 075°35'2 3.2
2017-Jun-26 00:00N 39°36' W 075°34'510.1
2017-Jun-25 23:31N 39°41' W 075°31'510.4
2017-Jun-25 23:00N 39°46' W 075°29'5 9.7
2017-Jun-25 22:30N 39°49' W 075°24'1 2.1
2017-Jun-25 22:00N 39°50' W 075°23'0 0.0
2017-Jun-25 21:31N 39°50' W 075°23'0 0.0
2017-Jun-25 21:01N 39°50' W 075°23'0 0.0
2017-Jun-25 20:31N 39°50' W 075°23'0 0.0
2017-Jun-25 20:01N 39°50' W 075°23'0 0.0
2017-Jun-25 19:31N 39°50' W 075°23'0 0.0
2017-Jun-25 19:00N 39°50' W 075°23'0 0.0
2017-Jun-25 18:31N 39°50' W 075°23'0 0.0
2017-Jun-25 18:01N 39°50' W 075°23'0 0.0
2017-Jun-25 17:30N 39°50' W 075°23'0 0.0
2017-Jun-25 17:00N 39°50' W 075°23'0 0.0
2017-Jun-25 16:31N 39°50' W 075°23'0 0.0
2017-Jun-25 16:00N 39°50' W 075°23'0 0.0
2017-Jun-25 15:31N 39°50' W 075°23'0 0.0
2017-Jun-25 15:00N 39°50' W 075°23'0 0.0
2017-Jun-25 14:00N 39°50' W 075°23'0 0.0
2017-Jun-25 13:31N 39°50' W 075°23'0 0.0
2017-Jun-25 13:00N 39°50' W 075°23'0 0.0
2017-Jun-25 12:30N 39°50' W 075°23'0 0.0
2017-Jun-25 12:00N 39°50' W 075°23'0 0.0
2017-Jun-25 11:30N 39°50' W 075°23'1 2.8
2017-Jun-25 11:00N 39°49' W 075°24'0 0.0
2017-Jun-25 10:30N 39°49' W 075°24'0 0.0
2017-Jun-25 10:01N 39°49' W 075°24'0 0.7
2017-Jun-25 09:31N 39°48' W 075°24'2 4.5
2017-Jun-25 09:01N 39°47' W 075°27'1 1.5
2017-Jun-25 08:31N 39°48' W 075°26'1 1.6
2017-Jun-25 08:01N 39°48' W 075°25'0 0.0
2017-Jun-25 07:31N 39°48' W 075°25'0 0.1
2017-Jun-25 07:00N 39°48' W 075°25'0 0.1
2017-Jun-25 06:31N 39°48' W 075°25'0 0.2
2017-Jun-25 06:00N 39°48' W 075°25'0 0.1
2017-Jun-25 05:30N 39°48' W 075°25'1 1.5
2017-Jun-25 05:00N 39°49' W 075°24'0 0.0
2017-Jun-25 04:30N 39°49' W 075°24'0 0.0
2017-Jun-25 04:00N 39°49' W 075°24'3 5.7
2017-Jun-25 03:31N 39°47' W 075°27'510.0
2017-Jun-25 03:00N 39°43' W 075°31'5 9.6
2017-Jun-25 02:30N 39°39' W 075°34'4 8.2
2017-Jun-25 02:01N 39°34' W 075°34'1 2.3
2017-Jun-25 01:31N 39°35' W 075°35'0 0.0
2017-Jun-25 01:01N 39°35' W 075°35'0 0.0
2017-Jun-25 00:31N 39°35' W 075°35'0 0.0
2017-Jun-25 00:01N 39°35' W 075°35'0 0.0
2017-Jun-24 23:31N 39°35' W 075°35'0 0.0
2017-Jun-24 23:00N 39°35' W 075°35'0 0.0
2017-Jun-24 22:30N 39°35' W 075°35'0 0.0
2017-Jun-24 22:00N 39°35' W 075°35'0 0.0
2017-Jun-24 21:30N 39°35' W 075°35'0 0.0
2017-Jun-24 21:00N 39°35' W 075°35'0 0.0
2017-Jun-24 20:30N 39°35' W 075°35'0 0.0
2017-Jun-24 20:01N 39°35' W 075°35'0 0.0
2017-Jun-24 19:31N 39°35' W 075°35'0 0.0
2017-Jun-24 19:00N 39°35' W 075°35'3 5.2
2017-Jun-24 18:30N 39°34' W 075°33'2 4.1
2017-Jun-24 18:00N 39°35' W 075°35'1 1.1
2017-Jun-24 17:30N 39°35' W 075°35'0 0.4
2017-Jun-24 17:00N 39°35' W 075°36'0 0.0
2017-Jun-24 16:30N 39°35' W 075°36'0 0.3
2017-Jun-24 16:01N 39°35' W 075°36'2 3.2
2017-Jun-24 15:31N 39°36' W 075°34'5 9.3
2017-Jun-24 15:00N 39°41' W 075°32'8 8.5
2017-Jun-24 14:01N 39°48' W 075°26'3 5.7
2017-Jun-24 13:30N 39°50' W 075°23'0 0.0
2017-Jun-24 13:00N 39°50' W 075°23'0 0.0
2017-Jun-24 12:30N 39°50' W 075°23'0 0.0
2017-Jun-24 12:00N 39°50' W 075°23'0 0.0
2017-Jun-24 11:31N 39°50' W 075°23'0 0.0
2017-Jun-24 11:00N 39°50' W 075°23'0 0.0
2017-Jun-24 10:31N 39°50' W 075°23'0 0.0
2017-Jun-24 10:01N 39°50' W 075°23'0 0.0
2017-Jun-24 09:31N 39°50' W 075°23'0 0.0
2017-Jun-24 09:01N 39°50' W 075°23'0 0.0
2017-Jun-24 08:30N 39°50' W 075°23'0 0.0
2017-Jun-24 08:01N 39°50' W 075°23'4 8.4
2017-Jun-24 07:31N 39°51' W 075°18'1 2.4
2017-Jun-24 06:54N 39°51' W 075°16'0 0.2
2017-Jun-24 06:30N 39°51' W 075°16'510.0
2017-Jun-24 06:01N 39°50' W 075°22'1 1.0
2017-Jun-24 05:30N 39°50' W 075°23'0 0.0
2017-Jun-24 05:00N 39°50' W 075°23'0 0.0
2017-Jun-24 04:30N 39°50' W 075°23'0 0.0
2017-Jun-24 04:00N 39°50' W 075°23'0 0.0
2017-Jun-24 03:30N 39°50' W 075°23'0 0.0
2017-Jun-24 03:00N 39°50' W 075°23'0 0.0
2017-Jun-24 02:30N 39°50' W 075°23'0 0.0
2017-Jun-24 02:00N 39°50' W 075°23'0 0.0
2017-Jun-24 01:30N 39°50' W 075°23'0 0.0
2017-Jun-24 01:00N 39°50' W 075°23'0 0.0
2017-Jun-24 00:30N 39°50' W 075°23'0 0.0
2017-Jun-24 00:00N 39°50' W 075°23'0 0.0
2017-Jun-23 23:30N 39°50' W 075°23'0 0.0
2017-Jun-23 23:00N 39°50' W 075°23'0 0.0
2017-Jun-23 22:30N 39°50' W 075°23'0 0.0
2017-Jun-23 22:00N 39°50' W 075°23'0 0.0
2017-Jun-23 21:30N 39°50' W 075°23'0 0.0
2017-Jun-23 21:00N 39°50' W 075°23'0 0.0
2017-Jun-23 20:30N 39°50' W 075°23'0 0.0
2017-Jun-23 20:00N 39°50' W 075°23'0 0.0
2017-Jun-23 19:30N 39°50' W 075°23'0 0.0
2017-Jun-23 19:01N 39°50' W 075°23'0 0.0
2017-Jun-23 18:31N 39°50' W 075°23'0 0.0
2017-Jun-23 18:01N 39°50' W 075°23'0 0.0
2017-Jun-23 17:31N 39°50' W 075°23'0 0.0
2017-Jun-23 17:00N 39°50' W 075°23'0 0.0
2017-Jun-23 16:31N 39°50' W 075°23'3 6.5
2017-Jun-23 16:01N 39°48' W 075°26'611.9
2017-Jun-23 15:30N 39°43' W 075°31'611.8
2017-Jun-23 15:00N 39°38' W 075°35'3 2.5
2017-Jun-23 14:01N 39°35' W 075°36'1 1.5
2017-Jun-23 13:30N 39°35' W 075°35'1 1.6
2017-Jun-23 13:00N 39°35' W 075°36'0 0.0
2017-Jun-23 12:30N 39°35' W 075°36'0 0.0
2017-Jun-23 12:00N 39°35' W 075°36'0 0.0
2017-Jun-23 11:31N 39°35' W 075°36'0 0.0
2017-Jun-23 11:01N 39°35' W 075°36'0 0.0
2017-Jun-23 10:30N 39°35' W 075°36'0 0.0
2017-Jun-23 10:00N 39°35' W 075°36'0 0.0
2017-Jun-23 09:30N 39°35' W 075°36'0 0.0
2017-Jun-23 09:00N 39°35' W 075°36'0 0.0
2017-Jun-23 08:30N 39°35' W 075°36'0 0.0
2017-Jun-23 08:00N 39°35' W 075°36'0 0.0
2017-Jun-23 07:30N 39°35' W 075°36'0 0.0
2017-Jun-23 07:00N 39°35' W 075°36'0 0.5
2017-Jun-23 06:30N 39°35' W 075°35'0 0.0
2017-Jun-23 06:00N 39°35' W 075°35'0 0.0
2017-Jun-23 05:30N 39°35' W 075°35'0 0.1
2017-Jun-23 05:00N 39°35' W 075°35'2 3.2
2017-Jun-23 04:30N 39°34' W 075°34'1 3.0
2017-Jun-23 04:01N 39°33' W 075°33'1 1.1
2017-Jun-23 03:30N 39°32' W 075°33'3 6.5
2017-Jun-23 03:01N 39°35' W 075°35'1 2.7
2017-Jun-23 02:30N 39°35' W 075°33'4 7.5
2017-Jun-23 02:01N 39°39' W 075°34'4 8.4
2017-Jun-23 01:31N 39°42' W 075°31'4 8.4
2017-Jun-23 01:00N 39°46' W 075°28'4 8.7
2017-Jun-23 00:30N 39°49' W 075°24'1 2.3
2017-Jun-23 00:00N 39°50' W 075°23'0 0.0
2017-Jun-22 23:30N 39°50' W 075°23'0 0.0
2017-Jun-22 23:00N 39°50' W 075°23'0 0.0
2017-Jun-22 22:30N 39°50' W 075°23'0 0.0
2017-Jun-22 22:00N 39°50' W 075°23'0 0.0
2017-Jun-22 21:30N 39°50' W 075°23'0 0.0
2017-Jun-22 21:00N 39°50' W 075°23'0 0.0
2017-Jun-22 20:30N 39°50' W 075°23'0 0.0
2017-Jun-22 20:00N 39°50' W 075°23'0 0.0
2017-Jun-22 19:30N 39°50' W 075°23'0 0.0
2017-Jun-22 19:00N 39°50' W 075°23'0 0.0
2017-Jun-22 18:30N 39°50' W 075°23'0 0.0
2017-Jun-22 18:00N 39°50' W 075°23'0 0.0
2017-Jun-22 17:30N 39°50' W 075°23'0 0.0
2017-Jun-22 17:00N 39°50' W 075°23'0 0.0
2017-Jun-22 16:30N 39°50' W 075°23'0 0.0
2017-Jun-22 16:00N 39°50' W 075°23'0 0.0
2017-Jun-22 15:30N 39°50' W 075°23'0 0.0
2017-Jun-22 15:00N 39°50' W 075°23'0 0.0
2017-Jun-22 14:31N 39°50' W 075°23'0 0.0
2017-Jun-22 13:30N 39°50' W 075°23'0 0.0
2017-Jun-22 13:00N 39°50' W 075°23'0 0.0
2017-Jun-22 12:30N 39°50' W 075°23'0 0.0
2017-Jun-22 12:00N 39°50' W 075°23'0 0.0
2017-Jun-22 11:30N 39°50' W 075°23'0 0.0
2017-Jun-22 11:00N 39°50' W 075°23'0 0.0
2017-Jun-22 10:30N 39°50' W 075°23'0 0.0
2017-Jun-22 10:00N 39°50' W 075°23'0 0.0
2017-Jun-22 09:30N 39°50' W 075°23'0 0.0
2017-Jun-22 09:01N 39°50' W 075°23'0 0.0
2017-Jun-22 08:30N 39°50' W 075°23'0 0.0
2017-Jun-22 08:00N 39°50' W 075°23'0 0.0
2017-Jun-22 07:30N 39°50' W 075°23'0 0.0
2017-Jun-22 07:00N 39°50' W 075°23'0 0.0
2017-Jun-22 06:30N 39°50' W 075°23'0 0.0
2017-Jun-22 06:01N 39°50' W 075°23'1 2.4
2017-Jun-22 05:30N 39°49' W 075°24'0 0.5
2017-Jun-22 05:01N 39°49' W 075°24'1 1.9
2017-Jun-22 04:30N 39°50' W 075°23'0 0.0
2017-Jun-22 04:00N 39°50' W 075°23'0 0.0
2017-Jun-22 03:30N 39°50' W 075°23'0 0.0
2017-Jun-22 03:00N 39°50' W 075°23'0 0.0
2017-Jun-22 02:30N 39°50' W 075°23'0 0.0
2017-Jun-22 02:00N 39°50' W 075°23'0 0.0
2017-Jun-22 01:30N 39°50' W 075°23'0 0.0
2017-Jun-22 01:01N 39°50' W 075°23'0 0.0
2017-Jun-22 00:31N 39°50' W 075°23'2 4.1
2017-Jun-22 00:00N 39°48' W 075°25'510.5
2017-Jun-21 23:30N 39°44' W 075°30'5 9.7
2017-Jun-21 23:00N 39°40' W 075°32'4 8.6
2017-Jun-21 22:30N 39°36' W 075°34'1 2.8
2017-Jun-21 22:00N 39°35' W 075°35'0 0.2
2017-Jun-21 21:30N 39°35' W 075°35'3 5.9
2017-Jun-21 21:00N 39°33' W 075°33'0 0.3
2017-Jun-21 20:31N 39°33' W 075°33'0 0.3
2017-Jun-21 20:00N 39°33' W 075°33'2 3.4
2017-Jun-21 19:30N 39°34' W 075°33'4 8.9
2017-Jun-21 19:00N 39°39' W 075°33'5 9.9
2017-Jun-21 18:30N 39°43' W 075°30'5 9.6
2017-Jun-21 18:01N 39°47' W 075°27'4 7.7
2017-Jun-21 17:30N 39°50' W 075°23'0 0.0
2017-Jun-21 17:00N 39°50' W 075°23'0 0.0
2017-Jun-21 16:30N 39°50' W 075°23'0 0.0
2017-Jun-21 16:00N 39°50' W 075°23'0 0.0
2017-Jun-21 15:30N 39°50' W 075°23'0 0.0
2017-Jun-21 15:00N 39°50' W 075°23'0 0.0
2017-Jun-21 14:30N 39°50' W 075°23'0 0.0
2017-Jun-21 13:30N 39°50' W 075°23'2 3.2
2017-Jun-21 13:00N 39°50' W 075°21'4 7.4
2017-Jun-21 12:31N 39°51' W 075°16'4 7.3
2017-Jun-21 12:00N 39°53' W 075°12'3 6.4
2017-Jun-21 11:30N 39°54' W 075°08'0 0.4
2017-Jun-21 11:01N 39°54' W 075°08'3 5.5
2017-Jun-21 10:30N 39°53' W 075°12'4 8.3
2017-Jun-21 10:00N 39°51' W 075°16'4 7.9
2017-Jun-21 09:30N 39°50' W 075°22'1 2.5
2017-Jun-21 09:01N 39°50' W 075°23'0 0.0
2017-Jun-21 08:30N 39°50' W 075°23'0 0.0
2017-Jun-21 08:00N 39°50' W 075°23'0 0.0
2017-Jun-21 07:30N 39°50' W 075°23'0 0.0
2017-Jun-21 07:00N 39°50' W 075°23'0 0.0
2017-Jun-21 06:30N 39°50' W 075°23'0 0.0
2017-Jun-21 06:00N 39°50' W 075°23'0 0.0
2017-Jun-21 05:30N 39°50' W 075°23'0 0.0
2017-Jun-21 05:00N 39°50' W 075°23'1 2.5
2017-Jun-21 04:30N 39°49' W 075°24'0 0.1
2017-Jun-21 04:00N 39°49' W 075°24'1 2.8
2017-Jun-21 03:30N 39°48' W 075°26'0 0.0
2017-Jun-21 03:01N 39°48' W 075°26'0 0.0
2017-Jun-21 02:31N 39°48' W 075°26'3 6.0
2017-Jun-21 02:01N 39°46' W 075°29'611.9
2017-Jun-21 01:31N 39°40' W 075°32'510.5
2017-Jun-21 01:01N 39°35' W 075°34'1 2.6
2017-Jun-21 00:31N 39°35' W 075°35'1 1.5
2017-Jun-21 00:00N 39°35' W 075°35'2 4.5
2017-Jun-20 23:31N 39°37' W 075°35'4 7.9
2017-Jun-20 23:01N 39°40' W 075°32'4 7.9
2017-Jun-20 22:30N 39°44' W 075°30'4 8.0
2017-Jun-20 22:00N 39°47' W 075°27'4 7.9
2017-Jun-20 21:30N 39°50' W 075°23'0 0.0
2017-Jun-20 21:00N 39°50' W 075°23'0 0.0
2017-Jun-20 20:30N 39°50' W 075°23'0 0.0
2017-Jun-20 20:00N 39°50' W 075°23'0 0.0
2017-Jun-20 19:30N 39°50' W 075°23'0 0.0
2017-Jun-20 19:00N 39°50' W 075°23'0 0.0
2017-Jun-20 18:30N 39°50' W 075°23'0 0.0
2017-Jun-20 18:00N 39°50' W 075°23'0 0.0
2017-Jun-20 17:30N 39°50' W 075°23'0 0.0
2017-Jun-20 17:00N 39°50' W 075°23'1 2.8
2017-Jun-20 16:30N 39°49' W 075°24'1 1.3
2017-Jun-20 16:00N 39°49' W 075°23'1 1.5
2017-Jun-20 15:30N 39°49' W 075°23'0 0.3
2017-Jun-20 15:00N 39°50' W 075°23'0 0.0
2017-Jun-20 14:00N 39°50' W 075°23'0 0.0
2017-Jun-20 13:31N 39°50' W 075°23'0 0.0
2017-Jun-20 13:00N 39°50' W 075°23'0 0.0
2017-Jun-20 12:30N 39°50' W 075°23'0 0.0
2017-Jun-20 12:00N 39°50' W 075°23'0 0.0
2017-Jun-20 11:30N 39°50' W 075°23'0 0.0
2017-Jun-20 11:00N 39°50' W 075°23'0 0.0
2017-Jun-20 10:30N 39°50' W 075°23'0 0.0
2017-Jun-20 10:00N 39°50' W 075°23'0 0.0
2017-Jun-20 09:30N 39°50' W 075°23'0 0.0
2017-Jun-20 09:00N 39°50' W 075°23'0 0.0
2017-Jun-20 08:30N 39°50' W 075°23'0 0.0
2017-Jun-20 08:00N 39°50' W 075°23'0 0.0
2017-Jun-20 07:30N 39°50' W 075°23'0 0.0
2017-Jun-20 07:00N 39°50' W 075°23'0 0.0
2017-Jun-20 06:30N 39°50' W 075°23'0 0.0
2017-Jun-20 06:00N 39°50' W 075°23'0 0.0
2017-Jun-20 05:31N 39°50' W 075°23'0 0.0
2017-Jun-20 05:00N 39°50' W 075°23'0 0.0
2017-Jun-20 04:30N 39°50' W 075°23'0 0.0
2017-Jun-20 04:01N 39°50' W 075°23'0 0.0
2017-Jun-20 03:30N 39°50' W 075°23'0 0.0
2017-Jun-20 03:00N 39°50' W 075°23'0 0.0
2017-Jun-20 02:31N 39°50' W 075°23'0 0.0
2017-Jun-20 02:01N 39°50' W 075°23'0 0.0
2017-Jun-20 01:31N 39°50' W 075°23'0 0.0
2017-Jun-20 01:01N 39°50' W 075°23'0 0.0
2017-Jun-20 00:31N 39°50' W 075°23'0 0.0
2017-Jun-20 00:01N 39°50' W 075°23'0 0.0
2017-Jun-19 23:30N 39°50' W 075°23'0 0.0
2017-Jun-19 23:00N 39°50' W 075°23'0 0.0
2017-Jun-19 22:30N 39°50' W 075°23'1 2.9
2017-Jun-19 22:01N 39°49' W 075°24'0 0.1
2017-Jun-19 21:30N 39°49' W 075°24'0 0.0
2017-Jun-19 21:00N 39°49' W 075°24'0 0.0
2017-Jun-19 20:30N 39°49' W 075°24'1 2.6
2017-Jun-19 20:00N 39°49' W 075°23'0 0.4
2017-Jun-19 19:30N 39°50' W 075°23'0 0.0
2017-Jun-19 19:00N 39°50' W 075°23'0 0.0
2017-Jun-19 18:30N 39°50' W 075°23'0 0.0
2017-Jun-19 18:00N 39°50' W 075°23'0 0.0
2017-Jun-19 17:30N 39°50' W 075°23'0 0.0
2017-Jun-19 16:59N 39°50' W 075°23'0 0.0
2017-Jun-19 16:30N 39°50' W 075°23'0 0.0
2017-Jun-19 16:00N 39°50' W 075°23'0 0.0
2017-Jun-19 15:30N 39°50' W 075°23'0 0.0
2017-Jun-19 15:00N 39°50' W 075°23'0 0.0
2017-Jun-19 14:30N 39°50' W 075°23'0 0.0
2017-Jun-19 13:30N 39°50' W 075°23'0 0.0
2017-Jun-19 13:00N 39°50' W 075°23'0 0.0
2017-Jun-19 12:30N 39°50' W 075°23'0 0.0
2017-Jun-19 12:00N 39°50' W 075°23'0 0.0
2017-Jun-19 11:30N 39°50' W 075°23'0 0.0
2017-Jun-19 11:00N 39°50' W 075°23'0 0.0
2017-Jun-19 10:30N 39°50' W 075°23'0 0.0
2017-Jun-19 10:00N 39°50' W 075°23'0 0.0
2017-Jun-19 09:30N 39°50' W 075°23'0 0.0
2017-Jun-19 09:00N 39°50' W 075°23'0 0.0
2017-Jun-19 08:31N 39°50' W 075°23'0 0.0
2017-Jun-19 08:00N 39°50' W 075°23'0 0.0
2017-Jun-19 07:30N 39°50' W 075°23'0 0.0
2017-Jun-19 07:00N 39°50' W 075°23'0 0.0
2017-Jun-19 06:30N 39°50' W 075°23'0 0.0
2017-Jun-19 06:00N 39°50' W 075°23'0 0.0
2017-Jun-19 05:30N 39°50' W 075°23'0 0.0
2017-Jun-19 05:00N 39°50' W 075°23'0 0.0
2017-Jun-19 04:31N 39°50' W 075°23'0 0.0
2017-Jun-19 04:00N 39°50' W 075°23'0 0.0
2017-Jun-19 03:30N 39°50' W 075°23'0 0.0
2017-Jun-19 03:00N 39°50' W 075°23'4 8.0
2017-Jun-19 02:30N 39°51' W 075°18'4 8.0
2017-Jun-19 02:00N 39°52' W 075°13'0 0.0
2017-Jun-19 01:31N 39°52' W 075°13'0 0.0
2017-Jun-19 01:00N 39°52' W 075°13'1 1.2
2017-Jun-19 00:30N 39°52' W 075°14'2 4.7
2017-Jun-19 00:01N 39°54' W 075°12'0 0.3
2017-Jun-18 23:30N 39°54' W 075°12'0 0.0
2017-Jun-18 23:00N 39°54' W 075°12'0 0.0
2017-Jun-18 22:31N 39°54' W 075°12'0 0.0
2017-Jun-18 22:01N 39°54' W 075°12'0 0.0
2017-Jun-18 21:31N 39°54' W 075°12'0 0.0
2017-Jun-18 21:00N 39°54' W 075°12'0 0.0
2017-Jun-18 20:30N 39°54' W 075°12'0 0.0
2017-Jun-18 20:01N 39°54' W 075°12'1 1.7
2017-Jun-18 19:31N 39°53' W 075°12'2 4.7
2017-Jun-18 19:00N 39°51' W 075°14'1 2.8
2017-Jun-18 18:31N 39°51' W 075°16'5 9.4
2017-Jun-18 18:00N 39°50' W 075°22'3 5.9
2017-Jun-18 17:30N 39°48' W 075°25'1 2.0
2017-Jun-18 17:01N 39°49' W 075°24'611.8
2017-Jun-18 16:30N 39°51' W 075°17'1 2.7
2017-Jun-18 16:01N 39°51' W 075°15'0 0.0
2017-Jun-18 15:31N 39°51' W 075°15'0 1.0
2017-Jun-18 15:00N 39°51' W 075°16'0 0.0
2017-Jun-18 14:01N 39°51' W 075°16'1 2.0
2017-Jun-18 13:31N 39°51' W 075°15'4 7.8
2017-Jun-18 13:01N 39°53' W 075°10'2 4.0
2017-Jun-18 12:30N 39°54' W 075°08'0 0.7
2017-Jun-18 12:01N 39°54' W 075°08'0 0.7
2017-Jun-18 11:30N 39°54' W 075°08'3 5.4
2017-Jun-18 11:00N 39°53' W 075°11'1 2.0
2017-Jun-18 10:31N 39°54' W 075°12'0 0.0
2017-Jun-18 10:01N 39°54' W 075°12'0 0.0
2017-Jun-18 09:30N 39°54' W 075°12'0 0.0
2017-Jun-18 09:00N 39°54' W 075°12'0 0.0
2017-Jun-18 08:31N 39°54' W 075°12'0 0.0
2017-Jun-18 08:00N 39°54' W 075°12'0 0.0
2017-Jun-18 07:30N 39°54' W 075°12'0 0.0
2017-Jun-18 07:00N 39°54' W 075°12'0 0.0
2017-Jun-18 06:31N 39°54' W 075°12'0 0.0
2017-Jun-18 06:00N 39°54' W 075°12'0 0.0
2017-Jun-18 05:30N 39°54' W 075°12'0 0.0
2017-Jun-18 05:00N 39°54' W 075°12'0 0.0
2017-Jun-18 04:30N 39°54' W 075°12'0 0.0
2017-Jun-18 04:00N 39°54' W 075°12'0 0.0
2017-Jun-18 03:31N 39°54' W 075°12'0 0.0
2017-Jun-18 03:01N 39°54' W 075°12'0 0.0
2017-Jun-18 02:30N 39°54' W 075°12'0 0.0
2017-Jun-18 02:00N 39°54' W 075°12'0 0.0
2017-Jun-18 01:30N 39°54' W 075°12'0 0.0
2017-Jun-18 01:00N 39°54' W 075°12'0 0.0
2017-Jun-18 00:30N 39°54' W 075°12'0 0.6
2017-Jun-18 00:01N 39°54' W 075°12'3 5.6
2017-Jun-17 23:30N 39°51' W 075°14'2 3.9
2017-Jun-17 23:00N 39°51' W 075°16'5 9.0
2017-Jun-17 22:30N 39°50' W 075°22'1 1.3
2017-Jun-17 22:00N 39°50' W 075°23'0 0.0
2017-Jun-17 21:30N 39°50' W 075°23'0 0.0
2017-Jun-17 21:00N 39°50' W 075°23'0 0.0
2017-Jun-17 20:31N 39°50' W 075°23'0 0.0
2017-Jun-17 20:00N 39°50' W 075°23'0 0.0
2017-Jun-17 19:30N 39°50' W 075°23'0 0.0
2017-Jun-17 19:00N 39°50' W 075°23'0 0.0
2017-Jun-17 18:30N 39°50' W 075°23'0 0.0
2017-Jun-17 18:00N 39°50' W 075°23'0 0.0
2017-Jun-17 17:30N 39°50' W 075°23'0 0.0
2017-Jun-17 17:00N 39°50' W 075°23'0 0.0
2017-Jun-17 16:30N 39°50' W 075°23'0 0.0
2017-Jun-17 16:00N 39°50' W 075°23'1 1.3
2017-Jun-17 15:30N 39°49' W 075°24'4 9.0
2017-Jun-17 15:00N 39°46' W 075°28'4 8.0
2017-Jun-17 14:30N 39°43' W 075°31'1 1.1
2017-Jun-17 13:30N 39°44' W 075°30'5 9.8
2017-Jun-17 13:00N 39°48' W 075°26'5 9.8
2017-Jun-17 12:30N 39°51' W 075°21'4 9.0
2017-Jun-17 12:00N 39°51' W 075°15'4 7.3
2017-Jun-17 11:30N 39°54' W 075°12'0 0.0
2017-Jun-17 11:00N 39°54' W 075°12'0 0.0
2017-Jun-17 10:31N 39°54' W 075°12'0 0.0
2017-Jun-17 10:00N 39°54' W 075°12'1 1.1
2017-Jun-17 09:31N 39°53' W 075°12'3 5.6
2017-Jun-17 09:01N 39°54' W 075°08'0 0.8
2017-Jun-17 08:30N 39°54' W 075°08'2 3.1
2017-Jun-17 08:00N 39°53' W 075°09'2 4.3
2017-Jun-17 07:30N 39°54' W 075°12'0 0.0
2017-Jun-17 07:00N 39°54' W 075°12'0 0.0
2017-Jun-17 06:31N 39°54' W 075°12'0 0.0
2017-Jun-17 06:00N 39°54' W 075°12'0 0.0
2017-Jun-17 05:31N 39°54' W 075°12'0 0.0
2017-Jun-17 05:01N 39°54' W 075°12'0 0.0
2017-Jun-17 04:30N 39°54' W 075°12'0 0.0
2017-Jun-17 04:00N 39°54' W 075°12'0 0.0
2017-Jun-17 03:30N 39°54' W 075°12'0 0.0
2017-Jun-17 03:00N 39°54' W 075°12'0 0.0
2017-Jun-17 02:30N 39°54' W 075°12'0 0.0
2017-Jun-17 02:00N 39°54' W 075°12'0 0.0
2017-Jun-17 01:30N 39°54' W 075°12'0 0.0
2017-Jun-17 01:00N 39°54' W 075°12'0 0.0
2017-Jun-17 00:30N 39°54' W 075°12'0 0.0
2017-Jun-17 00:01N 39°54' W 075°12'0 0.0
2017-Jun-16 23:30N 39°54' W 075°12'0 0.0
2017-Jun-16 23:00N 39°54' W 075°12'0 0.0
2017-Jun-16 22:30N 39°54' W 075°12'0 0.0
2017-Jun-16 22:00N 39°54' W 075°12'0 0.0
2017-Jun-16 21:31N 39°54' W 075°12'0 0.1
2017-Jun-16 21:00N 39°54' W 075°12'0 0.1
2017-Jun-16 20:31N 39°54' W 075°12'0 0.0
2017-Jun-16 20:00N 39°54' W 075°12'0 0.0
2017-Jun-16 19:30N 39°54' W 075°12'0 0.0
2017-Jun-16 19:00N 39°54' W 075°12'  

Dump ship's entire track history